Latest Weather Observations for Camden

IDN60901

Issued at 3:25 am EST Wednesday 17 September 2014 (issued every 10 minutes, with the page automatically refreshed every 10 minutes)

About weather observations | Map of Sydney area stations | Latest observations for Sydney area | Other Formats
Station Details ID: 068192 Name: CAMDEN AIRPORT AWS Lat: -34.04 Lon: 150.69 Height: 73.9 m
Data from the previous 72 hours. | See also: Recent months at Camden
Date/Time
EST
Tmp

°C
App
Tmp
°C
Dew
Point
°C
Rel
Hum
%
Delta-T

°C
Wind Press
QNH
hPa
Press
MSL
hPa
Rain
since
9 am
mm
Dir
 
Spd
km/h
Gust
km/h
Spd
kts
Gust
kts
17/03:00am 13.8 11.9 6.9 63 3.4 W 6 11 3 6 1009.9 1009.9 1.6
17/02:30am 13.7 11.9 7.0 64 3.3 WSW 6 11 3 6 1009.7 1009.7 1.6
17/02:00am 14.0 11.6 6.8 62 3.5 WSW 9 15 5 8 1009.8 1009.8 1.6
17/01:30am 14.2 10.7 7.0 62 3.5 WSW 15 24 8 13 1009.8 1009.8 1.6
17/01:00am 14.2 12.1 6.8 61 3.6 SW 7 13 4 7 1009.8 1009.8 1.6
17/12:30am 14.7 10.5 7.3 61 3.7 WSW 19 26 10 14 1009.7 1009.7 1.6
17/12:00am 13.8 11.8 6.4 61 3.6 SSW 6 11 3 6 1009.7 1009.7 1.6
 
Date/Time
EST
Tmp

°C
App
Tmp
°C
Dew
Point
°C
Rel
Hum
%
Delta-T

°C
Wind Press
QNH
hPa
Press
MSL
hPa
Rain
since
9 am
mm
Dir
 
Spd
km/h
Gust
km/h
Spd
kts
Gust
kts
16/11:30pm 14.4 12.9 6.7 60 3.7 WNW 4 11 2 6 1009.8 1009.8 1.6
16/11:00pm 13.9 11.4 6.7 62 3.5 WNW 9 13 5 7 1009.9 1009.9 1.6
16/10:30pm 13.4 11.0 7.2 66 3.0 WNW 9 13 5 7 1010.0 1010.0 1.6
16/10:00pm 13.5 10.7 6.8 64 3.3 W 11 13 6 7 1010.1 1010.1 1.6
16/09:30pm 12.8 9.5 6.6 66 3.0 W 13 13 7 7 1010.3 1010.3 1.6
16/09:00pm 14.5 11.1 6.1 57 4.0 WSW 13 15 7 8 1010.4 1010.4 1.6
16/08:30pm 15.2 11.5 6.2 55 4.4 WSW 15 20 8 11 1010.3 1010.3 1.6
16/08:00pm 14.9 11.3 6.7 58 4.0 SW 15 19 8 10 1010.4 1010.4 1.6
16/07:30pm 16.5 13.5 6.1 50 5.1 W 11 15 6 8 1010.0 1010.0 1.6
16/07:00pm 17.6 13.1 5.9 46 5.7 W 19 28 10 15 1009.5 1009.5 1.6
16/06:30pm 17.5 12.9 5.8 46 5.7 W 19 26 10 14 1009.0 1009.0 1.6
16/06:00pm 18.3 12.7 5.5 43 6.3 WNW 24 41 13 22 1008.4 1008.3 1.6
16/05:30pm 19.0 13.5 5.8 42 6.5 W 24 32 13 17 1007.8 1007.7 1.6
16/05:00pm 19.9 14.3 5.5 39 7.1 W 24 37 13 20 1007.3 1007.2 1.6
16/04:30pm 20.6 15.7 5.0 36 7.7 WNW 20 30 11 16 1006.8 1006.7 1.4
16/04:00pm 21.3 16.5 5.6 36 7.9 NW 20 28 11 15 1006.4 1006.3 1.4
16/03:30pm 19.3 19.1 13.7 70 3.2 S 7 11 4 6 1006.3 1006.2 1.4
16/03:00pm 19.6 20.3 14.4 72 3.0 S 4 9 2 5 1006.1 1006.0 1.4
16/02:30pm 18.7 18.9 14.8 78 2.3 S 7 13 4 7 1006.1 1006.0 1.4
16/02:00pm 16.4 15.6 13.9 85 1.4 SSE 11 15 6 8 1006.3 1006.2 1.4
16/01:30pm 20.9 19.2 13.6 63 4.2 E 15 19 8 10 1005.7 1005.6 0.0
16/01:00pm 21.0 18.5 13.4 62 4.4 NE 19 24 10 13 1006.1 1006.0 0.0
16/12:30pm 20.8 18.9 11.7 56 5.1 N 13 20 7 11 1007.2 1007.1 0.0
16/12:00pm 20.5 17.7 12.5 60 4.5 NNE 19 24 10 13 1007.8 1007.7 0.0
16/11:30am 20.7 18.9 13.2 62 4.3 NE 15 24 8 13 1008.5 1008.5 0.0
16/11:00am 19.3 19.1 13.7 70 3.2 NNE 7 19 4 10 1009.3 1009.3 0.0
16/10:30am 17.5 17.0 12.2 71 2.9 N 6 13 3 7 1010.0 1010.0 0.0
16/10:27am 17.5 17.1 12.4 72 2.8 N 6 11 3 6 1010.0 1010.0 0.0
16/10:00am 15.8 15.3 12.2 79 2.0 N 6 9 3 5 1010.3 1010.3 0.0
16/09:30am 15.4 14.4 12.2 81 1.8 NW 9 11 5 6 1010.9 1010.9 0.0
16/09:00am 16.1 15.6 12.5 79 2.0 W 7 11 4 6 1010.7 1010.7 0.0
16/08:30am 15.7 15.7 12.3 80 1.9 WNW 4 11 2 6 1010.9 1010.9 0.0
16/08:23am 15.7 14.6 12.1 79 2.0 N 9 13 5 7 1011.3 1011.3 0.0
16/08:00am 15.3 15.4 12.8 85 1.4 SSE 4 9 2 5 1011.5 1011.5 0.0
16/07:30am 14.5 14.1 12.5 88 1.1 N 6 9 3 5 1011.6 1011.6 0.0
16/07:00am 13.9 13.4 12.6 92 0.7 SE 7 13 4 7 1011.7 1011.7 0.0
16/06:30am 13.8 14.6 12.7 93 0.6 CALM 0 6 0 3 1012.2 1012.2 0.0
16/06:00am 13.1 12.0 12.0 93 0.6 S 9 13 5 7 1011.6 1011.6 0.0
16/05:30am 13.0 13.6 11.9 93 0.6 CALM 0 0 0 0 1012.1 1012.1 0.0
16/05:00am 12.8 11.3 11.9 94 0.5 NE 11 13 6 7 1011.9 1011.9 0.0
16/04:30am 13.0 12.3 12.1 94 0.5 S 7 9 4 5 1012.8 1012.8 0.0
16/04:00am 13.2 12.8 12.3 94 0.5 ESE 6 7 3 4 1012.7 1012.7 0.0
16/03:30am 12.9 13.5 12.0 94 0.5 CALM 0 0 0 0 1012.5 1012.5 0.0
16/03:00am 12.8 13.4 12.0 95 0.4 CALM 0 0 0 0 1012.8 1012.8 0.0
16/02:30am 12.3 12.7 11.4 94 0.5 CALM 0 0 0 0 1013.1 1013.1 0.0
16/02:00am 12.3 11.4 11.2 93 0.6 S 7 9 4 5 1013.2 1013.2 0.0
16/01:30am 12.2 12.4 10.4 89 0.9 CALM 0 0 0 0 1013.5 1013.5 0.0
16/01:00am 13.1 13.7 11.8 92 0.7 CALM 0 0 0 0 1014.2 1014.2 0.0
16/12:30am 13.3 13.1 11.9 91 0.8 SE 4 13 2 7 1014.3 1014.3 0.0
16/12:00am 13.6 12.7 11.3 86 1.2 SE 7 9 4 5 1014.9 1014.9 0.0
 
Date/Time
EST
Tmp

°C
App
Tmp
°C
Dew
Point
°C
Rel
Hum
%
Delta-T

°C
Wind Press
QNH
hPa
Press
MSL
hPa
Rain
since
9 am
mm
Dir
 
Spd
km/h
Gust
km/h
Spd
kts
Gust
kts
15/11:30pm 13.8 13.6 11.8 88 1.1 N 4 9 2 5 1015.8 1015.7 0.0
15/11:00pm 14.3 14.9 11.8 85 1.3 CALM 0 0 0 0 1016.1 1016.0 0.0
15/10:30pm 13.8 14.2 11.3 85 1.3 CALM 0 0 0 0 1016.1 1016.0 0.0
15/10:00pm 13.9 14.3 11.1 83 1.5 CALM 0 0 0 0 1016.0 1015.9 0.0
15/09:30pm 14.4 14.8 11.2 81 1.7 CALM 0 0 0 0 1016.2 1016.1 0.0
15/09:00pm 15.3 14.3 11.1 76 2.2 ENE 7 9 4 5 1016.5 1016.4 0.0
15/08:30pm 14.9 13.8 10.7 76 2.2 NE 7 7 4 4 1016.5 1016.4 0.0
15/08:00pm 14.8 13.7 10.6 76 2.2 ENE 7 9 4 5 1016.2 1016.1 0.0
15/07:30pm 14.9 15.1 10.7 76 2.2 CALM 0 0 0 0 1016.2 1016.1 0.0
15/07:00pm 15.4 14.3 10.6 73 2.5 E 7 9 4 5 1015.9 1015.8 0.0
15/06:30pm 16.0 14.8 10.3 69 3.0 E 7 9 4 5 1015.5 1015.4 0.0
15/06:00pm 16.7 14.6 9.9 64 3.6 E 11 17 6 9 1015.1 1015.1 0.0
15/05:30pm 17.7 14.5 9.8 60 4.2 E 17 24 9 13 1014.8 1014.8 0.0
15/05:00pm 19.0 15.8 10.0 56 4.8 ENE 17 24 9 13 1014.4 1014.4 0.0
15/04:30pm 19.8 16.6 10.0 53 5.3 ENE 17 26 9 14 1014.3 1014.3 0.0
15/04:00pm 20.5 17.3 10.0 51 5.7 ENE 17 26 9 14 1014.1 1014.1 0.0
15/03:30pm 21.5 18.5 9.4 46 6.5 ENE 15 30 8 16 1014.0 1014.0 0.0
15/03:00pm 22.3 19.8 6.5 36 8.1 E 9 13 5 7 1014.1 1014.1 0.0
15/02:30pm 21.9 19.3 6.2 36 8.0 NNE 9 15 5 8 1014.3 1014.3 0.0
15/02:00pm 21.9 19.4 6.6 37 7.8 NE 9 13 5 7 1014.5 1014.5 0.0
15/01:30pm 21.7 19.6 6.8 38 7.6 E 7 17 4 9 1014.9 1014.9 0.0
15/01:00pm 21.0 19.1 6.9 40 7.2 SE 6 11 3 6 1015.3 1015.3 0.0
15/12:30pm 20.9 18.9 7.2 41 7.0 S 7 13 4 7 1015.9 1015.8 0.0
15/12:00pm 20.7 18.6 8.4 45 6.4 NE 9 15 5 8 1016.5 1016.4 0.0
15/11:30am 19.2 17.1 8.2 49 5.7 N 9 17 5 9 1017.0 1016.9 0.0
15/11:00am 19.4 17.5 9.0 51 5.5 N 9 11 5 6 1017.4 1017.3 0.0
15/10:30am 18.5 17.2 9.8 57 4.6 N 7 13 4 7 1017.7 1017.6 0.0
15/10:00am 17.5 16.3 9.4 59 4.2 N 6 11 3 6 1017.9 1017.8 0.0
15/09:30am 17.3 16.3 10.9 66 3.5 N 7 11 4 6 1018.2 1018.1 0.0
15/09:00am 16.4 16.0 11.1 71 2.8 NE 4 9 2 5 1018.7 1018.6 0.0
15/08:30am 14.5 13.7 11.1 80 1.8 SE 6 9 3 5 1018.9 1018.8 0.0
15/08:00am 12.9 12.6 11.5 91 0.7 SE 4 7 2 4 1019.0 1018.9 0.0
15/07:30am 11.3 11.3 11.1 99 0.1 S 2 7 1 4 1019.0 1018.9 0.0
15/07:16am 10.6 10.8 10.4 99 0.1 CALM 0 0 0 0 1019.1 1019.0 0.0
15/07:00am 9.9 9.9 9.8 99 0.1 CALM 0 0 0 0 1019.0 1018.9 0.0
15/06:55am 9.9 9.9 9.8 99 0.1 CALM 0 0 0 0 1019.0 1018.9 0.0
15/06:30am 9.2 9.0 9.1 99 0.0 CALM 0 0 0 0 1018.8 1018.7 0.0
15/06:04am 8.3 7.9 8.2 99 0.0 CALM 0 0 0 0 1018.6 1018.5 0.0
15/06:00am 8.1 7.6 8.0 99 0.0 CALM 0 0 0 0 1018.5 1018.4 0.0
15/05:30am 8.7 8.4 8.6 99 0.0 CALM 0 0 0 0 1018.4 1018.3 0.0
15/05:26am 8.6 8.3 8.5 99 0.0 CALM 0 0 0 0 1018.4 1018.3 0.0
15/05:00am 9.0 8.8 8.9 99 0.0 CALM 0 0 0 0 1018.2 1018.1 0.0
15/04:30am 9.3 9.1 9.0 98 0.1 CALM 0 0 0 0 1018.2 1018.1 0.0
15/04:00am 9.7 9.5 9.2 97 0.2 CALM 0 0 0 0 1018.1 1018.0 0.0
15/03:59am 9.8 9.7 9.3 97 0.2 CALM 0 0 0 0 1018.1 1018.0 0.0
15/03:48am 10.3 10.4 10.1 99 0.1 CALM 0 0 0 0 1018.1 1018.0 0.0
15/03:43am 10.7 10.9 10.5 99 0.1 CALM 0 0 0 0 1018.1 1018.0 0.0
15/03:30am 10.8 11.0 10.6 99 0.1 CALM 0 0 0 0 1018.1 1018.0 0.0
15/03:19am 10.9 11.1 10.7 99 0.1 CALM 0 0 0 0 1018.2 1018.1 0.0
15/03:17am 10.9 11.1 10.7 99 0.1 CALM 0 0 0 0 1018.2 1018.1 0.0
15/03:00am 10.6 10.7 10.3 98 0.2 CALM 0 0 0 0 1018.3 1018.2 0.0
15/02:48am 10.4 10.4 9.9 97 0.3 CALM 0 0 0 0 1018.3 1018.2 0.0
15/02:34am 10.2 10.2 9.7 97 0.3 CALM 0 0 0 0 1018.4 1018.3 0.0
15/02:33am 10.3 10.3 9.8 97 0.3 CALM 0 0 0 0 1018.4 1018.3 0.0
15/02:30am 10.7 10.8 10.2 97 0.3 CALM 0 0 0 0 1018.4 1018.3 0.0
15/02:11am 10.4 10.3 9.5 94 0.5 CALM 0 0 0 0 1018.4 1018.3 0.0
15/02:05am 10.8 10.8 9.9 94 0.5 CALM 0 0 0 0 1018.4 1018.3 0.0
15/02:04am 10.8 10.8 9.9 94 0.5 CALM 0 0 0 0 1018.4 1018.3 0.0
15/02:00am 11.0 11.0 9.9 93 0.6 CALM 0 0 0 0 1018.4 1018.3 0.0
15/01:55am 11.2 11.3 10.3 94 0.5 CALM 0 0 0 0 1018.4 1018.3 0.0
15/01:30am 11.8 12.0 10.5 92 0.7 CALM 0 0 0 0 1018.7 1018.6 0.0
15/01:00am 12.8 13.2 11.2 90 0.8 CALM 0 0 0 0 1018.9 1018.8 0.0
15/12:30am 13.5 14.0 11.7 89 1.0 CALM 0 0 0 0 1019.3 1019.2 0.0
15/12:00am 13.7 14.2 11.6 87 1.1 CALM 0 0 0 0 1019.6 1019.5 0.0
 
Date/Time
EST
Tmp

°C
App
Tmp
°C
Dew
Point
°C
Rel
Hum
%
Delta-T

°C
Wind Press
QNH
hPa
Press
MSL
hPa
Rain
since
9 am
mm
Dir
 
Spd
km/h
Gust
km/h
Spd
kts
Gust
kts
14/11:30pm 13.7 14.2 11.6 87 1.1 CALM 0 0 0 0 1019.7 1019.6 0.0
14/11:00pm 13.6 14.1 11.7 88 1.0 CALM 0 6 0 3 1019.7 1019.6 0.0
14/10:30pm 13.6 14.0 11.1 85 1.3 CALM 0 7 0 4 1019.7 1019.6 0.0
14/10:00pm 13.8 13.1 11.3 85 1.3 W 6 7 3 4 1019.9 1019.9 0.0
14/09:30pm 13.4 13.6 11.8 90 0.9 W 2 7 1 4 1019.9 1019.9 0.0
14/09:00pm 12.9 13.3 11.3 90 0.8 CALM 0 0 0 0 1019.6 1019.5 0.0
14/08:30pm 12.8 13.0 10.5 86 1.2 CALM 0 0 0 0 1019.5 1019.4 0.0
14/08:00pm 13.9 13.1 11.1 83 1.5 S 6 7 3 4 1019.5 1019.4 0.0
14/07:30pm 14.0 13.2 11.0 82 1.6 S 6 9 3 5 1019.1 1019.0 0.0
14/07:00pm 14.3 13.7 10.5 78 2.0 S 4 9 2 5 1018.6 1018.5 0.0
14/06:30pm 15.4 13.6 10.8 74 2.4 SSE 11 15 6 8 1018.0 1017.9 0.0
14/06:00pm 16.3 14.2 11.0 71 2.8 SSE 13 20 7 11 1017.5 1017.4 0.0
14/05:30pm 17.2 15.4 10.8 66 3.4 SE 11 17 6 9 1017.0 1016.9 0.0
14/05:00pm 18.5 16.3 10.8 61 4.2 E 13 19 7 10 1016.5 1016.4 0.0
14/04:30pm 20.4 18.0 11.3 56 5.0 ESE 15 24 8 13 1016.0 1015.9 0.0
14/04:00pm 22.0 19.1 11.1 50 6.0 E 17 26 9 14 1015.3 1015.3 0.0
14/03:30pm 24.4 22.0 7.1 33 9.1 N 9 13 5 7 1015.1 1015.1 0.0
14/03:00pm 25.0 23.2 8.1 34 9.0 N 7 13 4 7 1015.1 1015.1 0.0
14/02:30pm 24.0 21.5 6.7 33 9.0 N 9 15 5 8 1015.3 1015.3 0.0
14/02:00pm 24.4 22.8 8.0 35 8.7 NNE 6 13 3 7 1015.6 1015.5 0.0
14/01:30pm 23.6 22.0 8.1 37 8.2 NW 6 11 3 6 1016.1 1016.0 0.0
14/01:00pm 23.3 21.6 8.2 38 8.0 NE 7 11 4 6 1016.5 1016.4 0.0
14/12:30pm 22.8 21.1 8.5 40 7.6 ENE 7 20 4 11 1017.0 1016.9 0.0
14/12:00pm 22.0 20.6 9.5 45 6.7 E 7 13 4 7 1017.6 1017.5 0.0
14/11:30am 21.5 20.2 9.1 45 6.6 S 6 11 3 6 1018.2 1018.1 0.0
14/11:00am 21.0 19.5 10.5 51 5.7 S 9 13 5 7 1018.7 1018.6 0.0
14/10:30am 20.6 19.8 11.2 55 5.2 NE 6 9 3 5 1019.1 1019.0 0.0
14/10:00am 18.9 18.4 11.9 64 3.9 NNE 6 9 3 5 1019.5 1019.4 0.0
14/09:30am 17.1 17.6 12.8 76 2.4 E 2 7 1 4 1020.1 1020.1 0.0
14/09:00am 14.1 13.6 12.7 91 0.8 E 7 9 4 5 1020.6 1020.6 0.0
14/08:58am 14.4 14.1 13.3 93 0.6 ESE 7 9 4 5 1020.6 1020.6 0.0
14/08:46am 13.5 13.4 13.3 99 0.1 ESE 6 9 3 5 1020.7 1020.7 0.0
14/08:30am 12.8 12.5 12.6 99 0.1 E 6 7 3 4 1020.8 1020.8 0.0
14/08:22am 12.5 12.5 12.3 99 0.1 SE 4 7 2 4 1020.9 1020.9 0.0
14/08:00am 11.4 11.0 11.2 99 0.1 S 4 7 2 4 1020.9 1020.9 0.0
14/07:30am 10.8 9.7 10.6 99 0.1 SSE 7 7 4 4 1020.7 1020.7 0.0
14/07:00am 10.2 10.3 10.0 99 0.1 CALM 0 6 0 3 1020.6 1020.6 0.0
14/06:30am 9.9 9.9 9.8 99 0.1 CALM 0 0 0 0 1020.5 1020.5 0.0
14/06:00am 9.8 9.4 9.7 99 0.1 S 2 6 1 3 1020.5 1020.5 0.0
14/05:30am 9.7 9.6 9.6 99 0.1 CALM 0 0 0 0 1020.5 1020.5 0.0
14/05:00am 9.4 9.3 9.3 99 0.0 CALM 0 0 0 0 1020.5 1020.5 0.0
14/04:30am 9.7 8.5 9.6 99 0.1 S 6 6 3 3 1020.5 1020.5 0.0
14/04:00am 10.2 10.2 9.9 98 0.2 CALM 0 0 0 0 1020.5 1020.5 0.0
14/03:30am 10.5 10.6 10.0 97 0.3 CALM 0 0 0 0 1020.5 1020.5 0.0

Latest Capital City Observations: Canberra | Sydney | Melbourne | Brisbane | Adelaide | Perth | Hobart | Darwin

Other Formats:

Comma delimited format used in spreadsheet applications
http://www.bom.gov.au/fwo/IDN60901/IDN60901.94755.axf

JavaScript Object Notation format (JSON) in row-major order
http://www.bom.gov.au/fwo/IDN60901/IDN60901.94755.json